sensor_id;sensor_type;location;lat;lon;timestamp;P1;durP1;ratioP1;P2;durP2;ratioP2
63959;SDS011;50136;51.374;0.096;2023-04-15T00:01:06;7.88;;;5.47;;
63959;SDS011;50136;51.374;0.096;2023-04-15T00:11:09;7.82;;;6.03;;
63959;SDS011;50136;51.374;0.096;2023-04-15T00:21:11;7.57;;;6.55;;
63959;SDS011;50136;51.374;0.096;2023-04-15T00:31:15;6.80;;;5.70;;
63959;SDS011;50136;51.374;0.096;2023-04-15T00:41:17;7.47;;;6.13;;
63959;SDS011;50136;51.374;0.096;2023-04-15T00:51:20;7.03;;;4.72;;
63959;SDS011;50136;51.374;0.096;2023-04-15T01:01:23;5.40;;;4.72;;
63959;SDS011;50136;51.374;0.096;2023-04-15T01:11:27;8.38;;;4.78;;
63959;SDS011;50136;51.374;0.096;2023-04-15T01:21:30;4.32;;;2.90;;
63959;SDS011;50136;51.374;0.096;2023-04-15T01:31:33;9.43;;;3.70;;
63959;SDS011;50136;51.374;0.096;2023-04-15T01:41:35;6.20;;;3.50;;
63959;SDS011;50136;51.374;0.096;2023-04-15T01:51:39;6.53;;;3.67;;
63959;SDS011;50136;51.374;0.096;2023-04-15T02:01:41;7.25;;;4.10;;
63959;SDS011;50136;51.374;0.096;2023-04-15T02:11:44;5.13;;;3.72;;
63959;SDS011;50136;51.374;0.096;2023-04-15T02:21:46;7.60;;;4.32;;
63959;SDS011;50136;51.374;0.096;2023-04-15T02:31:49;6.38;;;3.50;;
63959;SDS011;50136;51.374;0.096;2023-04-15T02:41:51;4.90;;;4.05;;
63959;SDS011;50136;51.374;0.096;2023-04-15T02:51:55;7.30;;;4.85;;
63959;SDS011;50136;51.374;0.096;2023-04-15T03:01:57;6.70;;;4.32;;
63959;SDS011;50136;51.374;0.096;2023-04-15T03:12:00;4.45;;;3.30;;
63959;SDS011;50136;51.374;0.096;2023-04-15T03:22:02;3.83;;;3.20;;
63959;SDS011;50136;51.374;0.096;2023-04-15T03:32:05;4.80;;;3.20;;
63959;SDS011;50136;51.374;0.096;2023-04-15T03:42:07;4.43;;;3.97;;
63959;SDS011;50136;51.374;0.096;2023-04-15T03:52:11;7.00;;;3.72;;
63959;SDS011;50136;51.374;0.096;2023-04-15T04:02:14;4.10;;;2.83;;
63959;SDS011;50136;51.374;0.096;2023-04-15T04:12:17;4.82;;;3.47;;
63959;SDS011;50136;51.374;0.096;2023-04-15T04:22:21;4.85;;;3.60;;
63959;SDS011;50136;51.374;0.096;2023-04-15T04:32:25;4.68;;;3.28;;
63959;SDS011;50136;51.374;0.096;2023-04-15T04:42:27;4.72;;;3.85;;
63959;SDS011;50136;51.374;0.096;2023-04-15T04:52:30;4.28;;;3.88;;
63959;SDS011;50136;51.374;0.096;2023-04-15T05:02:33;5.93;;;4.88;;
63959;SDS011;50136;51.374;0.096;2023-04-15T05:12:37;6.97;;;3.60;;
63959;SDS011;50136;51.374;0.096;2023-04-15T05:22:39;5.22;;;3.30;;
63959;SDS011;50136;51.374;0.096;2023-04-15T05:32:42;5.30;;;4.07;;
63959;SDS011;50136;51.374;0.096;2023-04-15T05:42:44;4.78;;;3.97;;
63959;SDS011;50136;51.374;0.096;2023-04-15T05:52:47;5.47;;;3.80;;
63959;SDS011;50136;51.374;0.096;2023-04-15T06:02:49;6.13;;;3.58;;
63959;SDS011;50136;51.374;0.096;2023-04-15T06:12:53;5.70;;;4.32;;
63959;SDS011;50136;51.374;0.096;2023-04-15T06:22:55;7.38;;;5.88;;
63959;SDS011;50136;51.374;0.096;2023-04-15T06:32:59;7.43;;;6.70;;
63959;SDS011;50136;51.374;0.096;2023-04-15T06:43:01;7.70;;;6.05;;
63959;SDS011;50136;51.374;0.096;2023-04-15T06:53:04;16.13;;;6.97;;
63959;SDS011;50136;51.374;0.096;2023-04-15T07:03:06;8.55;;;7.28;;
63959;SDS011;50136;51.374;0.096;2023-04-15T07:13:10;7.70;;;6.90;;
63959;SDS011;50136;51.374;0.096;2023-04-15T07:23:12;7.65;;;6.07;;
63959;SDS011;50136;51.374;0.096;2023-04-15T07:33:15;6.65;;;5.15;;
63959;SDS011;50136;51.374;0.096;2023-04-15T07:43:17;7.07;;;5.30;;
63959;SDS011;50136;51.374;0.096;2023-04-15T07:53:20;6.82;;;5.93;;
63959;SDS011;50136;51.374;0.096;2023-04-15T08:03:22;9.60;;;6.65;;
63959;SDS011;50136;51.374;0.096;2023-04-15T08:13:27;13.43;;;6.05;;
63959;SDS011;50136;51.374;0.096;2023-04-15T08:23:28;5.25;;;4.05;;
63959;SDS011;50136;51.374;0.096;2023-04-15T08:33:32;4.45;;;3.40;;
63959;SDS011;50136;51.374;0.096;2023-04-15T08:43:34;6.55;;;3.10;;
63959;SDS011;50136;51.374;0.096;2023-04-15T08:53:39;4.15;;;3.60;;
63959;SDS011;50136;51.374;0.096;2023-04-15T09:03:43;5.28;;;3.80;;
63959;SDS011;50136;51.374;0.096;2023-04-15T09:13:47;4.85;;;4.05;;
63959;SDS011;50136;51.374;0.096;2023-04-15T09:23:57;6.13;;;5.18;;
63959;SDS011;50136;51.374;0.096;2023-04-15T09:34:02;6.43;;;5.55;;
63959;SDS011;50136;51.374;0.096;2023-04-15T09:44:04;7.18;;;5.50;;
63959;SDS011;50136;51.374;0.096;2023-04-15T10:16:14;9.25;;;5.32;;
63959;SDS011;50136;51.374;0.096;2023-04-15T10:26:18;9.10;;;6.47;;
63959;SDS011;50136;51.374;0.096;2023-04-15T10:46:59;11.13;;;4.78;;
63959;SDS011;50136;51.374;0.096;2023-04-15T10:57:08;6.72;;;4.47;;
63959;SDS011;50136;51.374;0.096;2023-04-15T11:18:24;11.15;;;4.18;;
63959;SDS011;50136;51.374;0.096;2023-04-15T11:28:48;6.75;;;3.00;;
63959;SDS011;50136;51.374;0.096;2023-04-15T12:11:46;10.48;;;3.67;;
63959;SDS011;50136;51.374;0.096;2023-04-15T12:32:53;7.93;;;3.40;;
63959;SDS011;50136;51.374;0.096;2023-04-15T12:42:55;11.20;;;3.45;;
63959;SDS011;50136;51.374;0.096;2023-04-15T13:14:56;6.90;;;3.42;;
63959;SDS011;50136;51.374;0.096;2023-04-15T13:24:58;9.05;;;3.67;;
63959;SDS011;50136;51.374;0.096;2023-04-15T13:46:06;12.00;;;4.50;;
63959;SDS011;50136;51.374;0.096;2023-04-15T14:07:25;8.05;;;3.55;;
63959;SDS011;50136;51.374;0.096;2023-04-15T14:28:06;10.40;;;4.05;;
63959;SDS011;50136;51.374;0.096;2023-04-15T14:38:08;12.50;;;3.35;;
63959;SDS011;50136;51.374;0.096;2023-04-15T14:48:14;11.95;;;5.22;;
63959;SDS011;50136;51.374;0.096;2023-04-15T14:58:16;10.93;;;4.10;;
63959;SDS011;50136;51.374;0.096;2023-04-15T15:08:20;8.43;;;3.55;;
63959;SDS011;50136;51.374;0.096;2023-04-15T15:18:22;8.85;;;3.47;;
63959;SDS011;50136;51.374;0.096;2023-04-15T15:38:40;7.05;;;4.00;;
63959;SDS011;50136;51.374;0.096;2023-04-15T16:10:05;9.73;;;4.78;;
63959;SDS011;50136;51.374;0.096;2023-04-15T16:20:07;9.20;;;4.10;;
63959;SDS011;50136;51.374;0.096;2023-04-15T16:30:12;8.10;;;4.28;;
63959;SDS011;50136;51.374;0.096;2023-04-15T16:40:14;4.88;;;2.55;;
63959;SDS011;50136;51.374;0.096;2023-04-15T16:50:18;8.68;;;3.38;;
63959;SDS011;50136;51.374;0.096;2023-04-15T17:00:21;6.57;;;2.88;;
63959;SDS011;50136;51.374;0.096;2023-04-15T17:10:24;8.65;;;3.17;;
63959;SDS011;50136;51.374;0.096;2023-04-15T17:20:27;11.70;;;5.75;;
63959;SDS011;50136;51.374;0.096;2023-04-15T17:30:32;9.02;;;5.57;;
63959;SDS011;50136;51.374;0.096;2023-04-15T17:40:34;18.55;;;8.63;;
63959;SDS011;50136;51.374;0.096;2023-04-15T17:50:37;15.35;;;7.03;;
63959;SDS011;50136;51.374;0.096;2023-04-15T18:00:39;24.85;;;14.77;;
63959;SDS011;50136;51.374;0.096;2023-04-15T18:10:43;10.07;;;6.05;;
63959;SDS011;50136;51.374;0.096;2023-04-15T18:20:48;10.25;;;6.07;;
63959;SDS011;50136;51.374;0.096;2023-04-15T18:30:51;16.33;;;8.05;;
63959;SDS011;50136;51.374;0.096;2023-04-15T18:40:53;16.60;;;7.97;;
63959;SDS011;50136;51.374;0.096;2023-04-15T18:50:56;13.13;;;8.60;;
63959;SDS011;50136;51.374;0.096;2023-04-15T19:00:58;18.05;;;9.27;;
63959;SDS011;50136;51.374;0.096;2023-04-15T19:11:02;15.82;;;7.68;;
63959;SDS011;50136;51.374;0.096;2023-04-15T19:21:04;14.18;;;7.45;;
63959;SDS011;50136;51.374;0.096;2023-04-15T19:31:07;9.40;;;6.80;;
63959;SDS011;50136;51.374;0.096;2023-04-15T19:41:10;20.17;;;9.68;;
63959;SDS011;50136;51.374;0.096;2023-04-15T19:51:13;14.90;;;9.70;;
63959;SDS011;50136;51.374;0.096;2023-04-15T20:01:15;11.63;;;8.88;;
63959;SDS011;50136;51.374;0.096;2023-04-15T20:11:18;13.48;;;7.70;;
63959;SDS011;50136;51.374;0.096;2023-04-15T20:21:20;12.70;;;7.93;;
63959;SDS011;50136;51.374;0.096;2023-04-15T20:31:23;16.83;;;8.95;;
63959;SDS011;50136;51.374;0.096;2023-04-15T20:41:25;12.60;;;7.00;;
63959;SDS011;50136;51.374;0.096;2023-04-15T20:51:29;13.30;;;7.18;;
63959;SDS011;50136;51.374;0.096;2023-04-15T21:01:31;12.88;;;8.00;;
63959;SDS011;50136;51.374;0.096;2023-04-15T21:11:34;13.90;;;8.80;;
63959;SDS011;50136;51.374;0.096;2023-04-15T21:21:39;13.18;;;7.93;;
63959;SDS011;50136;51.374;0.096;2023-04-15T21:31:42;9.93;;;6.10;;
63959;SDS011;50136;51.374;0.096;2023-04-15T21:41:45;11.02;;;6.55;;
63959;SDS011;50136;51.374;0.096;2023-04-15T21:51:48;11.90;;;6.30;;
63959;SDS011;50136;51.374;0.096;2023-04-15T22:01:50;10.63;;;6.63;;
63959;SDS011;50136;51.374;0.096;2023-04-15T22:11:53;11.45;;;7.38;;
63959;SDS011;50136;51.374;0.096;2023-04-15T22:21:55;10.85;;;5.80;;
63959;SDS011;50136;51.374;0.096;2023-04-15T22:31:59;9.48;;;6.53;;
63959;SDS011;50136;51.374;0.096;2023-04-15T22:42:01;10.27;;;6.03;;
63959;SDS011;50136;51.374;0.096;2023-04-15T22:52:04;14.90;;;7.80;;
63959;SDS011;50136;51.374;0.096;2023-04-15T23:02:08;11.35;;;6.40;;
63959;SDS011;50136;51.374;0.096;2023-04-15T23:12:12;10.38;;;6.93;;
63959;SDS011;50136;51.374;0.096;2023-04-15T23:22:14;11.27;;;6.72;;
63959;SDS011;50136;51.374;0.096;2023-04-15T23:32:17;16.58;;;6.65;;
63959;SDS011;50136;51.374;0.096;2023-04-15T23:42:20;10.07;;;6.35;;
63959;SDS011;50136;51.374;0.096;2023-04-15T23:52:23;13.15;;;6.03;;
